sensor_id;sensor_type;location;lat;lon;timestamp;pressure;altitude;pressure_sealevel;temperature;humidity
21956;BME280;11142;49.930;8.606;2022-10-16T05:50:20;99965.38;;;17.63;100.00
21956;BME280;11142;49.930;8.606;2022-10-16T05:52:47;99969.22;;;17.68;100.00
21956;BME280;11142;49.930;8.606;2022-10-16T05:55:15;99966.97;;;17.73;100.00
21956;BME280;11142;49.930;8.606;2022-10-16T05:57:43;99970.56;;;17.72;100.00
21956;BME280;11142;49.930;8.606;2022-10-16T06:00:11;99983.69;;;17.72;100.00
21956;BME280;11142;49.930;8.606;2022-10-16T06:02:39;99984.63;;;17.81;100.00
21956;BME280;11142;49.930;8.606;2022-10-16T06:05:07;99985.53;;;17.89;100.00
21956;BME280;11142;49.930;8.606;2022-10-16T06:07:37;99987.72;;;17.94;100.00
21956;BME280;11142;49.930;8.606;2022-10-16T06:10:06;99990.97;;;18.05;100.00
21956;BME280;11142;49.930;8.606;2022-10-16T06:12:34;100000.16;;;18.19;100.00
21956;BME280;11142;49.930;8.606;2022-10-16T06:15:02;99997.38;;;18.21;100.00
21956;BME280;11142;49.930;8.606;2022-10-16T06:17:30;100001.72;;;18.30;100.00
21956;BME280;11142;49.930;8.606;2022-10-16T06:19:58;99997.25;;;18.40;100.00
21956;BME280;11142;49.930;8.606;2022-10-16T06:22:26;100004.59;;;18.36;100.00
21956;BME280;11142;49.930;8.606;2022-10-16T06:24:55;100002.25;;;18.33;100.00
21956;BME280;11142;49.930;8.606;2022-10-16T06:27:23;100003.13;;;17.79;100.00
21956;BME280;11142;49.930;8.606;2022-10-16T06:29:51;100007.81;;;17.39;100.00
21956;BME280;11142;49.930;8.606;2022-10-16T06:32:19;100008.44;;;17.60;100.00
21956;BME280;11142;49.930;8.606;2022-10-16T06:34:48;100011.00;;;17.79;100.00
21956;BME280;11142;49.930;8.606;2022-10-16T06:37:15;100031.66;;;17.65;100.00
21956;BME280;11142;49.930;8.606;2022-10-16T06:39:43;100020.28;;;17.74;100.00
21956;BME280;11142;49.930;8.606;2022-10-16T06:42:12;100016.78;;;17.56;100.00
21956;BME280;11142;49.930;8.606;2022-10-16T06:44:40;100026.91;;;17.31;100.00
21956;BME280;11142;49.930;8.606;2022-10-16T06:47:08;100024.63;;;17.65;100.00
21956;BME280;11142;49.930;8.606;2022-10-16T06:49:36;100022.41;;;17.97;100.00
21956;BME280;11142;49.930;8.606;2022-10-16T06:52:04;100014.25;;;18.18;100.00
21956;BME280;11142;49.930;8.606;2022-10-16T06:54:32;100013.31;;;18.37;100.00
21956;BME280;11142;49.930;8.606;2022-10-16T06:57:08;100020.56;;;18.52;100.00
21956;BME280;11142;49.930;8.606;2022-10-16T06:59:37;100023.88;;;18.72;100.00
21956;BME280;11142;49.930;8.606;2022-10-16T07:02:05;100025.06;;;18.95;100.00
21956;BME280;11142;49.930;8.606;2022-10-16T07:04:33;100028.84;;;19.19;100.00
21956;BME280;11142;49.930;8.606;2022-10-16T07:07:01;100028.91;;;19.27;100.00
21956;BME280;11142;49.930;8.606;2022-10-16T07:09:34;100034.75;;;19.38;99.77
21956;BME280;11142;49.930;8.606;2022-10-16T07:12:02;100039.09;;;19.47;99.24
21956;BME280;11142;49.930;8.606;2022-10-16T07:14:30;100046.34;;;19.45;98.03
21956;BME280;11142;49.930;8.606;2022-10-16T07:16:59;100046.19;;;18.86;98.53
21956;BME280;11142;49.930;8.606;2022-10-16T07:19:27;100053.41;;;18.66;100.00
21956;BME280;11142;49.930;8.606;2022-10-16T07:22:00;100052.19;;;18.78;100.00
21956;BME280;11142;49.930;8.606;2022-10-16T07:24:27;100058.81;;;18.82;100.00
21956;BME280;11142;49.930;8.606;2022-10-16T07:26:55;100063.72;;;18.77;100.00
21956;BME280;11142;49.930;8.606;2022-10-16T07:29:23;100077.72;;;18.50;100.00
21956;BME280;11142;49.930;8.606;2022-10-16T07:31:51;100076.53;;;18.35;100.00
21956;BME280;11142;49.930;8.606;2022-10-16T07:34:21;100077.50;;;18.34;100.00
21956;BME280;11142;49.930;8.606;2022-10-16T07:36:49;100079.78;;;18.47;100.00
21956;BME280;11142;49.930;8.606;2022-10-16T07:39:20;100081.00;;;18.52;100.00
21956;BME280;11142;49.930;8.606;2022-10-16T07:41:48;100086.69;;;18.48;100.00
21956;BME280;11142;49.930;8.606;2022-10-16T07:44:16;100083.59;;;18.35;100.00
21956;BME280;11142;49.930;8.606;2022-10-16T07:46:43;100091.28;;;17.82;100.00
21956;BME280;11142;49.930;8.606;2022-10-16T07:49:11;100096.06;;;17.30;100.00
21956;BME280;11142;49.930;8.606;2022-10-16T07:51:41;100102.41;;;17.47;100.00
21956;BME280;11142;49.930;8.606;2022-10-16T07:54:09;100099.63;;;18.04;100.00
21956;BME280;11142;49.930;8.606;2022-10-16T07:56:37;100095.03;;;18.71;100.00
21956;BME280;11142;49.930;8.606;2022-10-16T07:59:09;100099.06;;;19.00;100.00
21956;BME280;11142;49.930;8.606;2022-10-16T08:01:37;100100.88;;;19.18;100.00
21956;BME280;11142;49.930;8.606;2022-10-16T08:04:05;100108.53;;;18.58;100.00
21956;BME280;11142;49.930;8.606;2022-10-16T08:06:35;100119.09;;;18.12;100.00
21956;BME280;11142;49.930;8.606;2022-10-16T08:09:06;100119.09;;;17.46;100.00
21956;BME280;11142;49.930;8.606;2022-10-16T08:11:34;100123.63;;;17.63;100.00
21956;BME280;11142;49.930;8.606;2022-10-16T08:14:02;100136.56;;;17.93;100.00
21956;BME280;11142;49.930;8.606;2022-10-16T08:16:30;100129.63;;;18.02;100.00
21956;BME280;11142;49.930;8.606;2022-10-16T08:18:58;100133.13;;;18.20;100.00
21956;BME280;11142;49.930;8.606;2022-10-16T08:21:26;100128.75;;;18.48;100.00
21956;BME280;11142;49.930;8.606;2022-10-16T08:23:54;100132.13;;;18.68;100.00
21956;BME280;11142;49.930;8.606;2022-10-16T08:26:26;100135.06;;;19.00;100.00
21956;BME280;11142;49.930;8.606;2022-10-16T08:28:55;100146.81;;;19.05;100.00
21956;BME280;11142;49.930;8.606;2022-10-16T08:31:23;100148.22;;;18.82;100.00
21956;BME280;11142;49.930;8.606;2022-10-16T08:33:53;100161.59;;;18.62;100.00
21956;BME280;11142;49.930;8.606;2022-10-16T08:36:21;100172.34;;;18.50;100.00
21956;BME280;11142;49.930;8.606;2022-10-16T08:38:49;100171.81;;;18.37;100.00
21956;BME280;11142;49.930;8.606;2022-10-16T08:41:30;100174.59;;;18.36;100.00
21956;BME280;11142;49.930;8.606;2022-10-16T08:44:24;100180.97;;;18.24;100.00
21956;BME280;11142;49.930;8.606;2022-10-16T08:47:02;100185.38;;;18.33;100.00
21956;BME280;11142;49.930;8.606;2022-10-16T08:49:32;100188.94;;;18.51;100.00
21956;BME280;11142;49.930;8.606;2022-10-16T08:52:00;100190.31;;;18.45;100.00
21956;BME280;11142;49.930;8.606;2022-10-16T08:54:29;100188.66;;;18.44;100.00
21956;BME280;11142;49.930;8.606;2022-10-16T08:57:09;100186.56;;;18.48;100.00
21956;BME280;11142;49.930;8.606;2022-10-16T08:59:38;100193.06;;;18.44;100.00
21956;BME280;11142;49.930;8.606;2022-10-16T09:02:22;100199.94;;;18.64;100.00
21956;BME280;11142;49.930;8.606;2022-10-16T09:05:03;100201.41;;;18.76;100.00
21956;BME280;11142;49.930;8.606;2022-10-16T09:07:48;100200.56;;;18.76;100.00
21956;BME280;11142;49.930;8.606;2022-10-16T09:10:29;100214.03;;;18.90;100.00
21956;BME280;11142;49.930;8.606;2022-10-16T09:13:14;100211.03;;;18.85;100.00
21956;BME280;11142;49.930;8.606;2022-10-16T09:15:50;100216.63;;;18.73;100.00
21956;BME280;11142;49.930;8.606;2022-10-16T09:18:24;100225.38;;;18.91;100.00
21956;BME280;11142;49.930;8.606;2022-10-16T09:21:03;100222.22;;;18.87;100.00
21956;BME280;11142;49.930;8.606;2022-10-16T09:23:35;100219.84;;;18.94;100.00
21956;BME280;11142;49.930;8.606;2022-10-16T09:26:05;100232.50;;;19.08;100.00
21956;BME280;11142;49.930;8.606;2022-10-16T09:28:39;100240.75;;;18.95;100.00
21956;BME280;11142;49.930;8.606;2022-10-16T09:31:13;100244.47;;;19.20;100.00
21956;BME280;11142;49.930;8.606;2022-10-16T09:33:45;100249.88;;;19.46;100.00
21956;BME280;11142;49.930;8.606;2022-10-16T09:36:13;100237.06;;;19.69;100.00
21956;BME280;11142;49.930;8.606;2022-10-16T09:38:41;100235.16;;;20.74;100.00
21956;BME280;11142;49.930;8.606;2022-10-16T09:41:16;100228.59;;;21.36;97.06
21956;BME280;11142;49.930;8.606;2022-10-16T09:43:54;100237.19;;;22.10;93.77
21956;BME280;11142;49.930;8.606;2022-10-16T09:46:27;100238.59;;;22.45;90.52
21956;BME280;11142;49.930;8.606;2022-10-16T09:48:58;100245.50;;;22.62;89.31
21956;BME280;11142;49.930;8.606;2022-10-16T09:51:28;100258.00;;;22.93;86.56
21956;BME280;11142;49.930;8.606;2022-10-16T09:53:58;100263.06;;;23.02;85.63
21956;BME280;11142;49.930;8.606;2022-10-16T09:56:28;100262.94;;;23.80;83.71
21956;BME280;11142;49.930;8.606;2022-10-16T09:58:59;100255.44;;;24.73;79.71
21956;BME280;11142;49.930;8.606;2022-10-16T10:01:30;100249.59;;;25.92;72.42
21956;BME280;11142;49.930;8.606;2022-10-16T10:03:59;100257.16;;;25.31;74.02
21956;BME280;11142;49.930;8.606;2022-10-16T10:06:30;100255.69;;;26.13;71.39
21956;BME280;11142;49.930;8.606;2022-10-16T10:09:04;100260.06;;;26.49;68.72
21956;BME280;11142;49.930;8.606;2022-10-16T10:11:52;100262.84;;;25.85;69.62
21956;BME280;11142;49.930;8.606;2022-10-16T10:14:27;100270.34;;;25.03;72.56
21956;BME280;11142;49.930;8.606;2022-10-16T10:17:14;100274.47;;;24.10;77.08
21956;BME280;11142;49.930;8.606;2022-10-16T10:19:50;100274.16;;;24.42;77.56
21956;BME280;11142;49.930;8.606;2022-10-16T10:22:22;100269.13;;;23.95;78.16
21956;BME280;11142;49.930;8.606;2022-10-16T10:27:47;100261.47;;;23.55;82.67
21956;BME280;11142;49.930;8.606;2022-10-16T10:30:21;100256.69;;;24.77;78.24
21956;BME280;11142;49.930;8.606;2022-10-16T10:33:01;100255.63;;;25.22;74.31
21956;BME280;11142;49.930;8.606;2022-10-16T10:35:42;100255.91;;;24.91;75.07
21956;BME280;11142;49.930;8.606;2022-10-16T10:38:22;100258.47;;;24.70;73.75
21956;BME280;11142;49.930;8.606;2022-10-16T10:41:02;100256.88;;;24.75;75.35
21956;BME280;11142;49.930;8.606;2022-10-16T10:43:48;100256.34;;;27.25;63.60
21956;BME280;11142;49.930;8.606;2022-10-16T10:46:31;100263.88;;;28.28;58.56
21956;BME280;11142;49.930;8.606;2022-10-16T10:49:13;100249.41;;;28.75;57.31
21956;BME280;11142;49.930;8.606;2022-10-16T10:51:53;100249.13;;;29.40;54.69
21956;BME280;11142;49.930;8.606;2022-10-16T10:54:26;100254.22;;;29.80;52.40
21956;BME280;11142;49.930;8.606;2022-10-16T10:56:59;100256.81;;;30.97;50.21
21956;BME280;11142;49.930;8.606;2022-10-16T10:59:55;100258.09;;;30.33;48.78
21956;BME280;11142;49.930;8.606;2022-10-16T11:02:33;100246.19;;;30.04;52.28
21956;BME280;11142;49.930;8.606;2022-10-16T11:05:22;100255.41;;;33.33;42.98
21956;BME280;11142;49.930;8.606;2022-10-16T11:07:58;100264.38;;;32.82;42.83
21956;BME280;11142;49.930;8.606;2022-10-16T11:10:31;100250.69;;;31.79;44.92
21956;BME280;11142;49.930;8.606;2022-10-16T11:13:11;100254.38;;;30.89;47.32
21956;BME280;11142;49.930;8.606;2022-10-16T11:15:43;100257.38;;;30.81;47.41
21956;BME280;11142;49.930;8.606;2022-10-16T11:18:18;100249.84;;;30.10;50.97
21956;BME280;11142;49.930;8.606;2022-10-16T11:20:51;100253.41;;;27.67;55.49
21956;BME280;11142;49.930;8.606;2022-10-16T11:23:25;100253.00;;;27.96;57.11
21956;BME280;11142;49.930;8.606;2022-10-16T11:25:59;100256.50;;;27.84;53.60
21956;BME280;11142;49.930;8.606;2022-10-16T11:28:32;100244.16;;;25.78;61.97
21956;BME280;11142;49.930;8.606;2022-10-16T11:31:13;100246.00;;;22.74;74.96
21956;BME280;11142;49.930;8.606;2022-10-16T11:33:46;100242.66;;;22.09;80.56
21956;BME280;11142;49.930;8.606;2022-10-16T11:36:19;100245.94;;;22.35;80.29
21956;BME280;11142;49.930;8.606;2022-10-16T11:38:55;100247.03;;;22.49;79.38
21956;BME280;11142;49.930;8.606;2022-10-16T11:41:29;100244.13;;;22.28;82.22
21956;BME280;11142;49.930;8.606;2022-10-16T11:44:09;100251.03;;;23.76;74.76
21956;BME280;11142;49.930;8.606;2022-10-16T11:46:47;100247.28;;;25.82;68.88
21956;BME280;11142;49.930;8.606;2022-10-16T11:49:30;100241.84;;;25.69;65.58
21956;BME280;11142;49.930;8.606;2022-10-16T11:52:12;100243.31;;;25.35;68.35
21956;BME280;11142;49.930;8.606;2022-10-16T11:54:45;100243.28;;;28.55;54.38
21956;BME280;11142;49.930;8.606;2022-10-16T11:57:18;100247.00;;;29.80;47.36
21956;BME280;11142;49.930;8.606;2022-10-16T11:59:51;100236.56;;;26.93;56.47
21956;BME280;11142;49.930;8.606;2022-10-16T12:02:30;100234.00;;;26.37;60.55
21956;BME280;11142;49.930;8.606;2022-10-16T12:05:12;100229.72;;;27.31;56.59
21956;BME280;11142;49.930;8.606;2022-10-16T12:07:48;100220.59;;;27.00;57.38
21956;BME280;11142;49.930;8.606;2022-10-16T12:10:22;100223.34;;;29.08;49.21
21956;BME280;11142;49.930;8.606;2022-10-16T12:12:53;100233.09;;;30.94;44.80
21956;BME280;11142;49.930;8.606;2022-10-16T12:15:25;100252.03;;;32.98;41.52
21956;BME280;11142;49.930;8.606;2022-10-16T12:18:21;100260.81;;;35.37;37.32
21956;BME280;11142;49.930;8.606;2022-10-16T12:20:56;100259.31;;;37.03;33.88
21956;BME280;11142;49.930;8.606;2022-10-16T12:23:31;100255.03;;;37.38;32.44
21956;BME280;11142;49.930;8.606;2022-10-16T12:26:00;100251.59;;;36.28;35.56
21956;BME280;11142;49.930;8.606;2022-10-16T12:28:30;100251.53;;;37.52;32.58
21956;BME280;11142;49.930;8.606;2022-10-16T12:31:00;100253.72;;;37.86;32.26
21956;BME280;11142;49.930;8.606;2022-10-16T12:33:30;100264.09;;;39.76;29.54
21956;BME280;11142;49.930;8.606;2022-10-16T12:36:00;100274.19;;;40.57;27.04
21956;BME280;11142;49.930;8.606;2022-10-16T12:38:35;100258.41;;;39.39;28.35
21956;BME280;11142;49.930;8.606;2022-10-16T12:41:06;100253.22;;;39.37;29.49
21956;BME280;11142;49.930;8.606;2022-10-16T12:43:37;100264.84;;;39.48;29.78
21956;BME280;11142;49.930;8.606;2022-10-16T12:46:22;100261.66;;;38.87;30.11
21956;BME280;11142;49.930;8.606;2022-10-16T12:48:50;100262.75;;;35.14;35.83
21956;BME280;11142;49.930;8.606;2022-10-16T12:51:35;100245.84;;;30.98;42.38
21956;BME280;11142;49.930;8.606;2022-10-16T12:54:05;100251.28;;;28.55;48.55
21956;BME280;11142;49.930;8.606;2022-10-16T12:56:46;100244.16;;;27.76;53.14
21956;BME280;11142;49.930;8.606;2022-10-16T12:59:28;100239.31;;;27.19;54.40
21956;BME280;11142;49.930;8.606;2022-10-16T13:02:18;100242.19;;;27.24;56.63
21956;BME280;11142;49.930;8.606;2022-10-16T13:05:12;100225.88;;;27.47;55.87
21956;BME280;11142;49.930;8.606;2022-10-16T13:07:58;100232.47;;;27.64;56.73
21956;BME280;11142;49.930;8.606;2022-10-16T13:10:34;100233.88;;;27.54;56.99
21956;BME280;11142;49.930;8.606;2022-10-16T13:13:21;100229.91;;;27.23;57.16
21956;BME280;11142;49.930;8.606;2022-10-16T13:16:07;100240.34;;;26.77;59.75
21956;BME280;11142;49.930;8.606;2022-10-16T13:18:43;100241.25;;;26.50;59.99
21956;BME280;11142;49.930;8.606;2022-10-16T13:21:23;100252.22;;;25.85;59.59
21956;BME280;11142;49.930;8.606;2022-10-16T13:24:01;100238.78;;;25.72;63.18
21956;BME280;11142;49.930;8.606;2022-10-16T13:26:38;100241.00;;;25.89;61.56
21956;BME280;11142;49.930;8.606;2022-10-16T13:29:09;100241.53;;;26.27;62.21
21956;BME280;11142;49.930;8.606;2022-10-16T13:31:38;100236.16;;;26.55;60.47
21956;BME280;11142;49.930;8.606;2022-10-16T13:34:12;100237.59;;;26.58;61.28
21956;BME280;11142;49.930;8.606;2022-10-16T13:36:46;100243.09;;;26.50;59.23
21956;BME280;11142;49.930;8.606;2022-10-16T13:39:23;100239.44;;;26.23;60.56
21956;BME280;11142;49.930;8.606;2022-10-16T13:42:01;100241.75;;;26.32;60.77
21956;BME280;11142;49.930;8.606;2022-10-16T13:44:39;100240.97;;;26.38;60.34
21956;BME280;11142;49.930;8.606;2022-10-16T13:47:16;100243.00;;;26.36;61.53
21956;BME280;11142;49.930;8.606;2022-10-16T13:49:45;100238.25;;;26.25;63.05
21956;BME280;11142;49.930;8.606;2022-10-16T13:52:18;100234.63;;;26.12;63.42
21956;BME280;11142;49.930;8.606;2022-10-16T13:54:47;100236.22;;;26.06;64.54
21956;BME280;11142;49.930;8.606;2022-10-16T13:57:16;100240.38;;;25.87;63.21
21956;BME280;11142;49.930;8.606;2022-10-16T13:59:53;100238.56;;;25.67;63.12
21956;BME280;11142;49.930;8.606;2022-10-16T14:02:25;100230.19;;;25.49;65.93
21956;BME280;11142;49.930;8.606;2022-10-16T14:04:55;100230.22;;;25.34;67.50
21956;BME280;11142;49.930;8.606;2022-10-16T14:07:26;100229.91;;;25.22;66.85
21956;BME280;11142;49.930;8.606;2022-10-16T14:10:00;100230.66;;;25.16;67.32
21956;BME280;11142;49.930;8.606;2022-10-16T14:12:28;100227.75;;;25.11;67.32
21956;BME280;11142;49.930;8.606;2022-10-16T14:14:58;100225.38;;;25.02;67.86
21956;BME280;11142;49.930;8.606;2022-10-16T14:17:28;100224.66;;;24.93;67.42
21956;BME280;11142;49.930;8.606;2022-10-16T14:19:58;100224.94;;;24.83;68.13
21956;BME280;11142;49.930;8.606;2022-10-16T14:22:33;100220.91;;;24.73;69.24
21956;BME280;11142;49.930;8.606;2022-10-16T14:25:20;100217.72;;;24.92;69.04
21956;BME280;11142;49.930;8.606;2022-10-16T14:27:57;100211.94;;;24.74;69.64
21956;BME280;11142;49.930;8.606;2022-10-16T14:30:27;100217.06;;;24.90;69.58
21956;BME280;11142;49.930;8.606;2022-10-16T14:32:57;100224.44;;;25.09;68.63
21956;BME280;11142;49.930;8.606;2022-10-16T14:35:28;100235.06;;;25.09;67.89
21956;BME280;11142;49.930;8.606;2022-10-16T14:37:58;100229.88;;;25.01;67.99
21956;BME280;11142;49.930;8.606;2022-10-16T14:40:31;100234.81;;;25.04;67.78
21956;BME280;11142;49.930;8.606;2022-10-16T14:43:00;100241.34;;;24.87;68.28
21956;BME280;11142;49.930;8.606;2022-10-16T14:45:31;100234.94;;;24.81;69.37
21956;BME280;11142;49.930;8.606;2022-10-16T14:48:01;100231.91;;;24.84;67.84
21956;BME280;11142;49.930;8.606;2022-10-16T14:50:30;100231.53;;;24.73;68.95
21956;BME280;11142;49.930;8.606;2022-10-16T14:52:58;100229.25;;;24.55;69.42
21956;BME280;11142;49.930;8.606;2022-10-16T14:55:27;100225.41;;;24.43;69.41
21956;BME280;11142;49.930;8.606;2022-10-16T14:57:56;100226.78;;;24.39;69.25
21956;BME280;11142;49.930;8.606;2022-10-16T15:00:26;100232.91;;;24.40;69.43
21956;BME280;11142;49.930;8.606;2022-10-16T15:02:54;100222.38;;;24.46;69.03
21956;BME280;11142;49.930;8.606;2022-10-16T15:05:24;100231.06;;;24.55;68.90
21956;BME280;11142;49.930;8.606;2022-10-16T15:07:53;100228.16;;;25.93;63.35
21956;BME280;11142;49.930;8.606;2022-10-16T15:10:23;100237.03;;;25.79;63.03
21956;BME280;11142;49.930;8.606;2022-10-16T15:12:54;100232.34;;;25.81;63.50
21956;BME280;11142;49.930;8.606;2022-10-16T15:15:31;100237.25;;;26.05;62.09
21956;BME280;11142;49.930;8.606;2022-10-16T15:18:00;100236.84;;;25.59;63.21
21956;BME280;11142;49.930;8.606;2022-10-16T15:20:32;100229.75;;;25.09;66.08
21956;BME280;11142;49.930;8.606;2022-10-16T15:23:02;100228.72;;;24.60;68.49
21956;BME280;11142;49.930;8.606;2022-10-16T15:25:34;100235.56;;;24.40;70.22
21956;BME280;11142;49.930;8.606;2022-10-16T15:28:04;100244.63;;;24.30;70.40
21956;BME280;11142;49.930;8.606;2022-10-16T15:30:32;100239.16;;;24.32;70.56
21956;BME280;11142;49.930;8.606;2022-10-16T15:33:00;100238.94;;;24.33;70.51
21956;BME280;11142;49.930;8.606;2022-10-16T15:35:28;100247.03;;;24.03;72.50
21956;BME280;11142;49.930;8.606;2022-10-16T15:37:56;100248.22;;;24.00;73.15
21956;BME280;11142;49.930;8.606;2022-10-16T15:40:25;100254.25;;;24.09;73.05
21956;BME280;11142;49.930;8.606;2022-10-16T15:42:53;100258.09;;;24.06;73.82
21956;BME280;11142;49.930;8.606;2022-10-16T15:45:22;100256.31;;;23.99;73.66
21956;BME280;11142;49.930;8.606;2022-10-16T15:47:50;100257.38;;;23.75;74.51
21956;BME280;11142;49.930;8.606;2022-10-16T15:50:19;100255.13;;;23.41;75.39
21956;BME280;11142;49.930;8.606;2022-10-16T15:52:47;100257.91;;;23.09;77.56
21956;BME280;11142;49.930;8.606;2022-10-16T15:55:15;100265.47;;;22.89;79.39
21956;BME280;11142;49.930;8.606;2022-10-16T15:57:44;100251.63;;;22.71;80.15
21956;BME280;11142;49.930;8.606;2022-10-16T16:00:17;100253.47;;;22.70;80.34
21956;BME280;11142;49.930;8.606;2022-10-16T16:02:52;100252.97;;;22.59;81.44
21956;BME280;11142;49.930;8.606;2022-10-16T16:05:21;100249.31;;;22.68;81.21
21956;BME280;11142;49.930;8.606;2022-10-16T16:07:50;100249.34;;;22.52;81.66
21956;BME280;11142;49.930;8.606;2022-10-16T16:10:19;100264.59;;;22.34;82.75
21956;BME280;11142;49.930;8.606;2022-10-16T16:12:48;100256.34;;;22.20;83.72
21956;BME280;11142;49.930;8.606;2022-10-16T16:15:19;100252.22;;;21.86;85.71
21956;BME280;11142;49.930;8.606;2022-10-16T16:17:48;100254.22;;;21.67;87.17
21956;BME280;11142;49.930;8.606;2022-10-16T16:20:18;100245.78;;;21.56;88.46
21956;BME280;11142;49.930;8.606;2022-10-16T16:22:45;100260.28;;;21.36;89.91
21956;BME280;11142;49.930;8.606;2022-10-16T16:25:14;100262.41;;;21.24;90.37
21956;BME280;11142;49.930;8.606;2022-10-16T16:27:41;100262.22;;;21.17;91.51
21956;BME280;11142;49.930;8.606;2022-10-16T16:30:11;100258.44;;;21.28;90.63
21956;BME280;11142;49.930;8.606;2022-10-16T16:32:45;100257.97;;;21.33;90.95
21956;BME280;11142;49.930;8.606;2022-10-16T16:35:13;100264.53;;;21.29;91.11
21956;BME280;11142;49.930;8.606;2022-10-16T16:37:43;100255.94;;;21.18;91.46
21956;BME280;11142;49.930;8.606;2022-10-16T16:40:11;100262.13;;;21.01;92.46
21956;BME280;11142;49.930;8.606;2022-10-16T16:42:39;100249.66;;;20.78;93.64
21956;BME280;11142;49.930;8.606;2022-10-16T16:45:08;100259.81;;;20.64;94.50
21956;BME280;11142;49.930;8.606;2022-10-16T16:47:36;100268.41;;;20.66;95.14
21956;BME280;11142;49.930;8.606;2022-10-16T16:50:05;100266.28;;;20.70;94.70
21956;BME280;11142;49.930;8.606;2022-10-16T16:52:34;100273.06;;;20.81;94.12
21956;BME280;11142;49.930;8.606;2022-10-16T16:55:04;100275.28;;;20.93;93.34
21956;BME280;11142;49.930;8.606;2022-10-16T19:41:08;100367.69;;;17.14;100.00
21956;BME280;11142;49.930;8.606;2022-10-16T19:43:37;100373.78;;;17.14;100.00
21956;BME280;11142;49.930;8.606;2022-10-16T19:46:08;100378.88;;;17.16;100.00
21956;BME280;11142;49.930;8.606;2022-10-16T19:48:36;100386.47;;;17.09;100.00
21956;BME280;11142;49.930;8.606;2022-10-16T19:51:10;100390.13;;;16.97;100.00
21956;BME280;11142;49.930;8.606;2022-10-16T19:53:38;100394.66;;;16.95;100.00
21956;BME280;11142;49.930;8.606;2022-10-16T19:56:12;100398.50;;;16.91;100.00
21956;BME280;11142;49.930;8.606;2022-10-16T19:58:43;100402.38;;;16.96;100.00
21956;BME280;11142;49.930;8.606;2022-10-16T20:01:13;100397.41;;;16.93;100.00
21956;BME280;11142;49.930;8.606;2022-10-16T20:03:42;100407.47;;;16.88;100.00
